Terminal Aerodrome Forecast
Issued by NWS

Home | Current Version | Previous Version | Text Only | Print | Product List | Glossary On
Versions: 1 2 3 4 5 6 7 8 9 10 11 12 13 14
000
FTUS45 KVEF 300500
TAFEED
TAF
KEED 300538Z 3006/3106 34005KT P6SM -SHRA SCT050 OVC080
     FM301200 34010KT 6SM -RA BR SCT030 OVC060
      TEMPO 3013/3017 3SM RA BR FEW010 BKN030
     FM301900 01010G18KT P6SM -SHRA FEW010 OVC030
     FM310300 34009KT P6SM -SHRA FEW010 OVC025=

USA.gov is the U.S. government's official web portal to all federal, state and local government web resources and services.